Time;durP1;ratioP1;P1;durP2;ratioP2;P2;SDS_P1;SDS_P2;PMS_P1;PMS_P2;Temp;Humidity;BMP_temperature;BMP_pressure;BME280_temperature;BME280_humidity;BME280_pressure;Samples;Min_cycle;Max_cycle;Signal;HPM_P1;HPM_P2
2023/08/02 00:02:10;;;;;;;1.00;1.00;;;16.00;93.00;;;;;;4982264;28;20658;-74
2023/08/02 00:04:36;;;;;;;0.83;0.83;;;16.10;92.80;;;;;;4972534;28;20630;-73
2023/08/02 00:07:04;;;;;;;2.30;0.93;;;16.10;93.00;;;;;;4972216;28;20657;-74
2023/08/02 00:09:30;;;;;;;1.33;1.10;;;16.20;93.00;;;;;;4979452;28;20641;-73
2023/08/02 00:11:57;;;;;;;2.70;1.37;;;16.20;92.70;;;;;;4969076;28;21199;-74
2023/08/02 00:14:25;;;;;;;1.10;1.00;;;16.30;92.80;;;;;;4979151;28;20629;-74
2023/08/02 00:16:53;;;;;;;1.53;1.33;;;16.30;93.10;;;;;;4971742;28;20658;-74
2023/08/02 00:19:20;;;;;;;1.37;1.27;;;16.30;93.10;;;;;;4976574;28;20762;-73
2023/08/02 00:21:46;;;;;;;1.27;1.17;;;16.20;92.80;;;;;;4981686;28;20649;-74
2023/08/02 00:24:13;;;;;;;1.67;1.57;;;16.40;93.10;;;;;;4981381;28;20636;-74
2023/08/02 00:26:40;;;;;;;1.10;1.10;;;16.40;92.70;;;;;;4980273;28;21244;-73
2023/08/02 00:29:07;;;;;;;1.20;1.10;;;16.40;93.10;;;;;;4978811;28;20632;-74
2023/08/02 00:31:33;;;;;;;1.13;0.80;;;16.40;93.30;;;;;;4976038;28;20683;-74
2023/08/02 00:34:02;;;;;;;1.30;1.30;;;16.50;92.90;;;;;;4980158;28;20680;-73
2023/08/02 00:36:28;;;;;;;1.23;1.10;;;16.50;93.00;;;;;;4976190;28;20769;-74
2023/08/02 00:38:55;;;;;;;1.67;1.20;;;16.50;93.20;;;;;;4976850;28;20632;-73
2023/08/02 00:41:22;;;;;;;1.87;1.50;;;16.50;93.20;;;;;;4975954;28;20655;-73
2023/08/02 00:43:49;;;;;;;1.20;1.10;;;16.50;93.20;;;;;;4974241;28;20637;-74
2023/08/02 00:46:17;;;;;;;1.50;0.93;;;16.50;93.20;;;;;;4981091;28;20662;-73
2023/08/02 00:48:46;;;;;;;1.53;1.27;;;16.30;93.30;;;;;;4980729;28;20633;-73
2023/08/02 00:51:15;;;;;;;1.37;1.20;;;16.30;93.80;;;;;;4979967;28;20740;-74
2023/08/02 00:53:43;;;;;;;1.23;1.03;;;16.40;93.70;;;;;;4982864;28;20622;-73
2023/08/02 00:56:10;;;;;;;1.50;1.10;;;16.30;93.90;;;;;;4985821;28;21029;-74
2023/08/02 00:58:37;;;;;;;1.00;1.00;;;16.20;94.10;;;;;;4977833;28;20653;-73
2023/08/02 01:01:07;;;;;;;2.20;1.60;;;16.20;94.30;;;;;;4981298;28;20757;-74
2023/08/02 01:03:35;;;;;;;1.50;1.20;;;16.20;94.10;;;;;;4977920;28;20630;-74
2023/08/02 01:06:12;;;;;;;2.60;1.30;;;16.10;94.60;;;;;;4983059;28;20645;-74
2023/08/02 01:08:43;;;;;;;1.13;1.07;;;16.10;94.60;;;;;;4983472;28;21030;-73
2023/08/02 01:11:19;;;;;;;1.20;1.10;;;16.00;94.50;;;;;;4974650;28;20668;-74
2023/08/02 01:13:50;;;;;;;4.20;1.77;;;16.00;94.90;;;;;;4981655;28;20628;-74
2023/08/02 01:16:20;;;;;;;1.10;0.97;;;16.00;94.80;;;;;;4976042;28;20692;-74
2023/08/02 01:18:47;;;;;;;1.37;1.27;;;16.00;95.10;;;;;;4979735;28;21278;-74
2023/08/02 01:21:16;;;;;;;0.97;0.90;;;15.90;95.20;;;;;;4984658;28;20654;-73
2023/08/02 01:23:44;;;;;;;2.20;1.07;;;15.80;95.10;;;;;;4980262;28;20633;-73
2023/08/02 01:26:13;;;;;;;2.00;1.10;;;16.00;95.30;;;;;;4977097;28;20754;-74
2023/08/02 01:28:45;;;;;;;1.23;1.13;;;15.90;95.20;;;;;;4979276;28;21292;-74
2023/08/02 01:31:16;;;;;;;1.03;1.03;;;15.90;95.30;;;;;;4981951;28;20669;-73
2023/08/02 01:33:47;;;;;;;1.33;1.23;;;15.90;95.30;;;;;;4980433;28;20630;-74
2023/08/02 01:36:17;;;;;;;1.03;0.93;;;15.90;95.40;;;;;;4981315;28;20653;-74
2023/08/02 01:38:45;;;;;;;1.13;0.90;;;15.80;95.60;;;;;;4975769;28;20630;-73
2023/08/02 01:41:12;;;;;;;3.10;1.37;;;15.90;95.90;;;;;;4980347;28;20716;-73
2023/08/02 01:43:40;;;;;;;1.00;1.00;;;15.70;95.60;;;;;;4982706;28;20733;-74
2023/08/02 01:46:07;;;;;;;1.37;1.27;;;15.80;96.00;;;;;;4982108;28;20653;-73
2023/08/02 01:48:35;;;;;;;1.60;1.10;;;15.80;96.10;;;;;;4973446;28;20630;-73
2023/08/02 01:51:03;;;;;;;2.10;1.27;;;15.70;96.20;;;;;;4969324;28;21325;-73
2023/08/02 01:53:32;;;;;;;3.43;1.10;;;15.70;96.30;;;;;;4979250;28;21048;-73
2023/08/02 01:56:00;;;;;;;1.60;1.07;;;15.70;96.30;;;;;;4979474;28;21016;-73
2023/08/02 01:58:29;;;;;;;1.53;1.33;;;15.70;96.20;;;;;;4984650;28;20625;-74
2023/08/02 02:00:57;;;;;;;1.53;1.43;;;15.70;96.60;;;;;;4981267;28;20645;-73
2023/08/02 02:03:25;;;;;;;1.50;1.30;;;15.70;96.50;;;;;;4981792;28;20637;-73
2023/08/02 02:05:53;;;;;;;1.17;0.90;;;15.60;96.70;;;;;;4978846;28;20754;-73
2023/08/02 02:08:20;;;;;;;1.40;1.30;;;15.70;96.70;;;;;;4980848;28;20696;-73
2023/08/02 02:10:52;;;;;;;1.10;0.80;;;15.60;96.70;;;;;;4978633;28;20649;-74
2023/08/02 02:13:20;;;;;;;1.27;0.90;;;15.70;96.70;;;;;;4978389;28;20630;-74
2023/08/02 02:15:47;;;;;;;1.43;0.90;;;15.70;96.70;;;;;;4982832;28;20681;-73
2023/08/02 02:18:14;;;;;;;2.20;2.10;;;15.60;96.60;;;;;;4975388;28;20676;-73
2023/08/02 02:20:41;;;;;;;2.77;1.20;;;15.60;96.50;;;;;;4980611;28;20650;-73
2023/08/02 02:23:09;;;;;;;1.37;1.27;;;15.60;96.60;;;;;;4980862;28;20643;-73
2023/08/02 02:25:37;;;;;;;3.23;0.93;;;15.60;96.80;;;;;;4978956;28;20694;-73
2023/08/02 02:28:05;;;;;;;1.97;1.23;;;15.70;96.70;;;;;;4976995;28;20689;-74
2023/08/02 02:30:34;;;;;;;1.07;0.77;;;15.70;96.80;;;;;;4977550;28;20658;-74
2023/08/02 02:33:03;;;;;;;1.20;1.07;;;15.70;97.00;;;;;;4978548;28;21268;-73
2023/08/02 02:35:31;;;;;;;1.57;1.07;;;15.80;96.80;;;;;;4974113;28;20642;-73
2023/08/02 02:37:58;;;;;;;1.80;1.60;;;15.80;97.00;;;;;;4978469;28;20997;-73
2023/08/02 02:40:25;;;;;;;1.00;0.93;;;15.90;96.80;;;;;;4977497;28;20996;-74
2023/08/02 02:42:52;;;;;;;1.63;1.20;;;15.90;96.60;;;;;;4978425;28;20629;-73
2023/08/02 02:45:21;;;;;;;1.00;0.97;;;15.90;96.40;;;;;;4983218;28;20637;-74
2023/08/02 02:47:49;;;;;;;1.67;1.53;;;15.90;96.50;;;;;;4981172;28;20624;-73
2023/08/02 02:50:17;;;;;;;1.17;0.93;;;15.90;96.40;;;;;;4977345;28;21241;-73
2023/08/02 02:52:45;;;;;;;1.40;1.00;;;15.80;96.10;;;;;;4983924;28;20654;-74
2023/08/02 02:55:12;;;;;;;0.97;0.97;;;15.90;96.50;;;;;;4977844;28;20804;-73
2023/08/02 02:57:41;;;;;;;1.97;1.00;;;15.80;96.20;;;;;;4985979;28;20750;-74
2023/08/02 03:00:10;;;;;;;0.87;0.87;;;15.80;96.30;;;;;;4975444;28;21224;-73
2023/08/02 03:02:39;;;;;;;3.47;1.30;;;15.70;96.30;;;;;;4978190;28;20624;-73
2023/08/02 03:05:08;;;;;;;2.03;1.00;;;15.70;96.50;;;;;;4971049;28;20657;-74
2023/08/02 03:07:36;;;;;;;2.20;1.07;;;15.70;96.50;;;;;;4978387;28;20742;-73
2023/08/02 03:10:05;;;;;;;1.77;1.47;;;15.80;96.50;;;;;;4983492;28;20646;-73
2023/08/02 03:12:36;;;;;;;2.90;1.23;;;15.80;96.20;;;;;;4977986;28;20976;-73
2023/08/02 03:15:03;;;;;;;2.03;1.03;;;15.90;96.30;;;;;;4981391;28;21027;-73
2023/08/02 03:17:30;;;;;;;1.17;0.90;;;15.90;95.90;;;;;;4983724;28;20622;-73
2023/08/02 03:19:58;;;;;;;7.50;1.23;;;15.90;96.20;;;;;;4973573;28;20721;-74
2023/08/02 03:22:25;;;;;;;1.83;1.67;;;16.00;96.50;;;;;;4981738;28;20649;-74
2023/08/02 03:24:52;;;;;;;3.30;1.30;;;16.00;95.90;;;;;;4978995;28;20629;-74
2023/08/02 03:27:18;;;;;;;1.07;0.97;;;16.10;96.20;;;;;;4979252;28;20649;-74
2023/08/02 03:29:45;;;;;;;1.10;1.00;;;16.10;95.90;;;;;;4978975;28;21246;-74
2023/08/02 03:32:12;;;;;;;1.70;1.27;;;16.00;95.90;;;;;;4978873;28;21269;-74
2023/08/02 03:34:39;;;;;;;1.33;1.13;;;16.10;96.00;;;;;;4979855;28;20641;-74
2023/08/02 03:37:07;;;;;;;1.40;1.10;;;16.10;95.80;;;;;;4974931;28;20745;-73
2023/08/02 03:39:34;;;;;;;1.53;0.97;;;16.10;95.90;;;;;;4979209;28;20633;-73
2023/08/02 03:42:02;;;;;;;1.30;1.10;;;16.10;95.80;;;;;;4979224;28;20656;-73
2023/08/02 03:44:29;;;;;;;1.37;1.27;;;16.30;95.60;;;;;;4978907;28;20627;-74
2023/08/02 03:46:56;;;;;;;1.50;1.20;;;16.20;95.50;;;;;;4978197;28;20662;-73
2023/08/02 03:49:23;;;;;;;1.30;1.20;;;16.20;95.60;;;;;;4981396;28;20629;-74
2023/08/02 03:51:50;;;;;;;1.27;1.03;;;16.30;95.60;;;;;;4976808;28;20680;-73
2023/08/02 03:54:18;;;;;;;1.13;1.00;;;16.30;95.50;;;;;;4983913;28;20625;-73
2023/08/02 03:56:44;;;;;;;1.63;1.17;;;16.20;95.40;;;;;;4976800;28;20692;-74
2023/08/02 03:59:11;;;;;;;1.00;0.77;;;16.30;95.30;;;;;;4977201;28;20660;-74
2023/08/02 04:01:38;;;;;;;1.00;0.90;;;16.30;95.30;;;;;;4978140;28;20961;-74
2023/08/02 04:04:05;;;;;;;1.67;1.00;;;16.30;95.20;;;;;;4973424;28;20630;-73
2023/08/02 04:06:32;;;;;;;4.10;1.40;;;16.30;95.10;;;;;;4980142;28;20775;-73
2023/08/02 04:08:58;;;;;;;1.23;0.90;;;16.20;95.10;;;;;;4975607;28;20622;-74
2023/08/02 04:11:26;;;;;;;1.17;1.07;;;16.20;95.00;;;;;;4978879;28;20655;-74
2023/08/02 04:13:53;;;;;;;1.13;0.90;;;16.20;94.90;;;;;;4979071;28;20746;-73
2023/08/02 04:16:20;;;;;;;1.20;1.10;;;16.30;95.00;;;;;;4980990;28;20657;-74
2023/08/02 04:18:47;;;;;;;1.27;0.90;;;16.20;95.10;;;;;;4982163;28;20640;-74
2023/08/02 04:21:18;;;;;;;1.67;1.10;;;16.30;95.60;;;;;;4979001;28;20645;-74
2023/08/02 04:23:44;;;;;;;1.33;1.00;;;16.20;96.10;;;;;;4987262;28;20640;-72
2023/08/02 04:26:12;;;;;;;1.47;1.00;;;16.10;96.00;;;;;;4975451;28;21220;-73
2023/08/02 04:28:40;;;;;;;2.00;1.50;;;16.20;97.00;;;;;;4984210;28;20632;-74
2023/08/02 04:31:07;;;;;;;1.60;1.50;;;16.10;97.80;;;;;;4985067;28;20649;-73
2023/08/02 04:33:33;;;;;;;3.30;1.60;;;16.10;97.60;;;;;;4981670;28;20656;-74
2023/08/02 04:36:00;;;;;;;1.33;1.23;;;16.00;98.20;;;;;;4979818;28;21248;-73
2023/08/02 04:38:27;;;;;;;2.87;1.60;;;15.90;98.50;;;;;;4978130;28;20633;-73
2023/08/02 04:40:54;;;;;;;1.47;1.37;;;15.90;99.70;;;;;;4983951;28;20652;-73
2023/08/02 04:43:21;;;;;;;1.10;1.00;;;15.80;99.90;;;;;;4981382;28;20633;-74
2023/08/02 04:45:49;;;;;;;0.97;0.97;;;15.90;99.90;;;;;;4979551;28;21014;-74
2023/08/02 04:48:16;;;;;;;1.77;1.67;;;15.80;99.90;;;;;;4982249;28;20649;-73
2023/08/02 04:50:44;;;;;;;2.20;1.77;;;15.90;99.90;;;;;;4981570;28;20736;-74
2023/08/02 04:53:10;;;;;;;2.50;1.33;;;15.90;99.90;;;;;;4981079;28;21244;-73
2023/08/02 04:55:44;;;;;;;1.63;1.07;;;15.90;99.90;;;;;;4982882;28;20653;-73
2023/08/02 04:58:11;;;;;;;2.23;1.83;;;15.80;99.90;;;;;;4972512;28;21007;-73
2023/08/02 05:00:38;;;;;;;2.57;1.60;;;15.80;99.90;;;;;;4980782;28;20648;-73
2023/08/02 05:03:06;;;;;;;2.20;1.37;;;15.70;99.90;;;;;;4985210;28;20632;-73
2023/08/02 05:05:33;;;;;;;1.37;1.27;;;15.80;99.90;;;;;;4981453;28;21006;-73
2023/08/02 05:08:00;;;;;;;1.70;1.57;;;15.80;99.90;;;;;;4979215;28;21266;-73
2023/08/02 05:10:27;;;;;;;1.50;1.17;;;15.80;99.90;;;;;;4979265;28;20657;-72
2023/08/02 05:12:53;;;;;;;4.60;1.77;;;15.70;99.90;;;;;;4979892;28;20653;-73
2023/08/02 05:15:20;;;;;;;1.77;1.67;;;15.70;99.90;;;;;;4980949;28;20716;-73
2023/08/02 05:17:47;;;;;;;2.87;2.10;;;15.70;99.90;;;;;;4973741;28;20642;-73
2023/08/02 05:20:15;;;;;;;2.30;1.70;;;15.70;99.90;;;;;;4980836;28;20663;-73
2023/08/02 05:22:42;;;;;;;1.33;1.23;;;15.70;99.90;;;;;;4981058;28;20626;-73
2023/08/02 05:25:10;;;;;;;1.30;1.20;;;15.60;99.90;;;;;;4978547;28;20960;-73
2023/08/02 05:27:36;;;;;;;1.67;1.57;;;15.60;99.90;;;;;;4981653;28;20643;-73
2023/08/02 05:30:04;;;;;;;3.80;1.70;;;15.70;99.90;;;;;;4980221;28;20629;-73
2023/08/02 05:32:30;;;;;;;1.43;1.33;;;15.70;99.90;;;;;;4983310;28;20780;-74
2023/08/02 05:34:57;;;;;;;1.53;1.43;;;15.70;99.90;;;;;;4978875;28;20737;-73
2023/08/02 05:37:28;;;;;;;1.70;1.60;;;15.70;99.90;;;;;;4985344;28;20661;-74
2023/08/02 05:39:55;;;;;;;6.97;3.10;;;15.50;99.90;;;;;;4979105;28;20974;-73
2023/08/02 05:42:21;;;;;;;2.43;2.23;;;15.50;99.90;;;;;;4984115;28;20653;-73
2023/08/02 05:44:48;;;;;;;4.50;2.07;;;15.50;99.90;;;;;;4978573;28;20752;-73
2023/08/02 05:47:15;;;;;;;2.07;1.77;;;15.60;99.90;;;;;;4979832;28;21553;-74
2023/08/02 05:49:42;;;;;;;3.40;2.43;;;15.60;99.90;;;;;;4976093;28;20621;-73
2023/08/02 05:52:08;;;;;;;1.37;1.27;;;15.70;99.90;;;;;;4981686;28;20669;-73
2023/08/02 05:54:37;;;;;;;2.20;1.40;;;15.70;99.90;;;;;;4979042;28;21078;-73
2023/08/02 05:57:04;;;;;;;2.87;2.47;;;15.70;99.90;;;;;;4981333;28;20696;-74
2023/08/02 05:59:31;;;;;;;1.93;1.80;;;15.70;99.90;;;;;;4974105;28;21059;-74
2023/08/02 06:01:57;;;;;;;1.60;1.30;;;15.60;99.90;;;;;;4981415;28;20736;-74
2023/08/02 06:04:24;;;;;;;1.80;1.70;;;15.60;99.90;;;;;;4972592;28;20637;-73
2023/08/02 06:06:51;;;;;;;1.97;1.73;;;15.50;99.90;;;;;;4978947;28;20654;-72
2023/08/02 06:09:18;;;;;;;1.97;1.70;;;15.50;99.90;;;;;;4978440;28;20638;-73
2023/08/02 06:11:46;;;;;;;1.83;1.73;;;15.50;99.90;;;;;;4977921;28;20660;-74
2023/08/02 06:14:14;;;;;;;4.87;2.80;;;15.50;99.90;;;;;;4977651;28;20657;-74
2023/08/02 06:16:40;;;;;;;3.10;2.07;;;15.60;99.90;;;;;;4977497;28;20656;-74
2023/08/02 06:19:07;;;;;;;2.83;1.70;;;15.60;99.90;;;;;;4972608;28;20630;-73
2023/08/02 06:21:34;;;;;;;5.20;2.30;;;15.60;99.90;;;;;;4978108;28;20654;-74
2023/08/02 06:24:01;;;;;;;2.40;2.00;;;15.70;99.90;;;;;;4979901;28;20623;-73
2023/08/02 06:26:28;;;;;;;3.40;2.47;;;15.80;99.90;;;;;;4983286;28;20662;-73
2023/08/02 06:28:57;;;;;;;1.80;1.67;;;15.80;99.90;;;;;;4977963;28;20665;-73
2023/08/02 06:31:23;;;;;;;3.77;2.37;;;15.70;99.90;;;;;;4980186;28;20677;-73
2023/08/02 06:33:50;;;;;;;3.60;2.37;;;15.70;99.90;;;;;;4978288;28;20661;-73
2023/08/02 06:36:17;;;;;;;1.60;1.40;;;15.70;99.90;;;;;;4977297;28;20654;-74
2023/08/02 06:38:45;;;;;;;2.27;2.10;;;15.80;99.90;;;;;;4980662;28;20643;-72
2023/08/02 06:41:12;;;;;;;3.50;2.50;;;15.80;99.90;;;;;;4977267;28;20660;-73
2023/08/02 06:43:39;;;;;;;2.43;2.10;;;15.80;99.90;;;;;;4977930;28;20622;-73
2023/08/02 06:46:07;;;;;;;5.83;2.73;;;15.80;99.90;;;;;;4970363;28;20642;-73
2023/08/02 06:48:34;;;;;;;2.37;2.00;;;15.90;99.90;;;;;;4977126;28;20641;-74
2023/08/02 06:51:01;;;;;;;2.97;2.67;;;16.00;99.90;;;;;;4974065;28;20649;-74
2023/08/02 06:53:27;;;;;;;2.20;1.80;;;16.00;99.90;;;;;;4979165;28;20664;-74
2023/08/02 06:55:54;;;;;;;2.30;2.10;;;16.00;99.90;;;;;;4975286;28;20665;-73
2023/08/02 06:58:21;;;;;;;2.23;1.70;;;16.10;99.90;;;;;;4972179;28;20729;-73
2023/08/02 07:00:48;;;;;;;6.47;2.60;;;16.10;99.90;;;;;;4977917;28;20650;-72
2023/08/02 07:03:17;;;;;;;2.50;1.90;;;16.20;99.90;;;;;;4977823;28;20637;-73
2023/08/02 07:05:45;;;;;;;3.33;2.03;;;16.20;99.90;;;;;;4975416;28;20654;-73
2023/08/02 07:08:15;;;;;;;4.03;2.80;;;16.10;99.90;;;;;;4980301;28;21083;-73
2023/08/02 07:10:42;;;;;;;2.17;1.97;;;16.20;99.90;;;;;;4979673;28;20997;-73
2023/08/02 07:13:08;;;;;;;2.83;2.60;;;16.10;99.90;;;;;;4979132;28;20762;-73
2023/08/02 07:15:37;;;;;;;2.67;2.30;;;16.20;99.90;;;;;;4977522;28;20796;-73
2023/08/02 07:18:04;;;;;;;2.33;2.07;;;16.20;99.90;;;;;;4979458;28;20630;-72
2023/08/02 07:20:32;;;;;;;3.60;2.53;;;16.20;99.90;;;;;;4975418;28;20735;-72
2023/08/02 07:22:58;;;;;;;2.37;2.17;;;16.30;99.90;;;;;;4979253;28;20630;-74
2023/08/02 07:25:29;;;;;;;2.30;1.90;;;16.30;99.90;;;;;;4975991;28;20654;-72
2023/08/02 07:27:56;;;;;;;2.53;2.20;;;16.40;99.90;;;;;;4978671;28;20631;-72
2023/08/02 07:30:26;;;;;;;2.17;2.00;;;16.50;99.90;;;;;;4975265;28;21218;-72
2023/08/02 07:32:53;;;;;;;1.93;1.73;;;16.30;99.90;;;;;;4980294;28;20666;-72
2023/08/02 07:35:19;;;;;;;3.43;2.20;;;16.50;99.90;;;;;;4975402;28;20629;-72
2023/08/02 07:37:50;;;;;;;2.70;2.30;;;16.60;99.90;;;;;;4973935;28;21043;-72
2023/08/02 07:40:23;;;;;;;3.00;2.23;;;16.60;99.90;;;;;;4978719;28;20736;-73
2023/08/02 07:42:50;;;;;;;2.73;2.47;;;16.60;99.90;;;;;;4979625;28;20724;-73
2023/08/02 07:45:17;;;;;;;2.20;2.00;;;16.60;99.90;;;;;;4975698;28;20633;-73
2023/08/02 07:47:43;;;;;;;2.27;1.87;;;16.70;99.90;;;;;;4979106;28;20625;-73
2023/08/02 07:50:11;;;;;;;1.80;1.70;;;16.60;99.90;;;;;;4978743;28;20677;-73
2023/08/02 07:52:37;;;;;;;2.80;1.70;;;16.70;99.90;;;;;;4975971;28;20673;-73
2023/08/02 07:55:07;;;;;;;2.03;1.83;;;16.70;99.90;;;;;;4977432;28;21039;-73
2023/08/02 07:57:35;;;;;;;3.30;2.43;;;16.80;99.90;;;;;;4983505;28;20637;-73
2023/08/02 08:00:02;;;;;;;2.60;2.40;;;16.70;99.90;;;;;;4979840;28;21170;-73
2023/08/02 08:02:32;;;;;;;1.90;1.70;;;16.60;99.90;;;;;;4980431;28;20631;-73
2023/08/02 08:04:59;;;;;;;2.87;2.20;;;16.70;99.90;;;;;;4973245;28;20634;-73
2023/08/02 08:07:26;;;;;;;4.73;2.03;;;16.70;99.90;;;;;;4979293;28;21097;-73
2023/08/02 08:09:55;;;;;;;2.40;2.00;;;16.70;99.90;;;;;;4982599;28;20632;-73
2023/08/02 08:12:24;;;;;;;2.77;2.00;;;16.80;99.90;;;;;;4982691;28;20659;-73
2023/08/02 08:14:52;;;;;;;2.80;1.90;;;16.90;99.90;;;;;;4979420;28;20987;-74
2023/08/02 08:17:19;;;;;;;5.80;2.20;;;16.80;99.90;;;;;;4981822;28;21024;-73
2023/08/02 08:19:46;;;;;;;1.97;1.87;;;17.00;99.90;;;;;;4979310;28;20622;-73
2023/08/02 08:22:14;;;;;;;1.90;1.43;;;17.00;99.90;;;;;;4978082;28;20882;-73
2023/08/02 08:24:41;;;;;;;3.07;2.40;;;17.00;99.90;;;;;;4983781;28;21203;-73
2023/08/02 08:27:10;;;;;;;3.20;1.80;;;17.00;99.90;;;;;;4979223;28;20660;-74
2023/08/02 08:29:38;;;;;;;2.13;1.93;;;17.10;99.90;;;;;;4981296;28;21186;-73
2023/08/02 08:32:05;;;;;;;1.73;1.50;;;17.10;99.90;;;;;;4979861;28;20660;-73
2023/08/02 08:34:32;;;;;;;2.17;2.07;;;17.10;99.90;;;;;;4983417;28;20657;-73
2023/08/02 08:36:59;;;;;;;2.53;2.30;;;17.10;99.90;;;;;;4978676;28;20655;-73
2023/08/02 08:39:25;;;;;;;1.90;1.70;;;17.10;99.90;;;;;;4979760;28;20676;-73
2023/08/02 08:41:52;;;;;;;1.47;1.33;;;17.00;99.90;;;;;;4977368;28;20756;-73
2023/08/02 08:44:19;;;;;;;2.10;1.60;;;17.20;99.90;;;;;;4980970;28;21258;-73
2023/08/02 08:46:48;;;;;;;1.97;1.70;;;17.20;99.90;;;;;;4978902;28;20652;-73
2023/08/02 08:49:15;;;;;;;2.60;1.97;;;17.30;99.90;;;;;;4977598;28;20732;-73
2023/08/02 08:51:45;;;;;;;1.70;1.57;;;17.30;99.90;;;;;;4979501;28;20655;-74
2023/08/02 08:54:17;;;;;;;1.80;1.70;;;17.40;99.90;;;;;;4980868;28;20654;-73
2023/08/02 08:56:44;;;;;;;2.40;1.70;;;17.50;99.90;;;;;;4975825;28;20670;-73
2023/08/02 08:59:11;;;;;;;1.93;1.63;;;17.50;99.90;;;;;;4981182;28;20636;-74
2023/08/02 09:01:40;;;;;;;1.70;1.60;;;17.40;99.90;;;;;;4984703;28;20660;-74
2023/08/02 09:04:09;;;;;;;2.37;1.97;;;17.50;99.90;;;;;;4979872;28;20633;-72
2023/08/02 09:06:36;;;;;;;2.07;1.67;;;17.50;99.90;;;;;;4979324;28;20664;-73
2023/08/02 09:09:04;;;;;;;3.27;1.87;;;17.50;99.90;;;;;;4981911;28;20732;-72
2023/08/02 09:11:31;;;;;;;1.53;1.43;;;17.40;99.90;;;;;;4982560;28;21051;-72
2023/08/02 09:14:12;;;;;;;1.27;1.20;;;17.40;99.90;;;;;;4979374;28;20669;-72
2023/08/02 09:16:56;;;;;;;2.30;1.90;;;17.40;99.90;;;;;;4977673;28;20738;-72
2023/08/02 09:19:27;;;;;;;1.90;1.57;;;17.50;99.90;;;;;;4979365;28;20729;-73
2023/08/02 09:22:10;;;;;;;1.60;1.50;;;17.40;99.90;;;;;;4974531;28;20657;-73
2023/08/02 09:24:38;;;;;;;3.97;2.53;;;17.40;99.90;;;;;;4971744;28;20732;-72
2023/08/02 09:27:06;;;;;;;2.23;2.00;;;17.50;99.90;;;;;;4974356;28;20649;-71
2023/08/02 09:29:47;;;;;;;1.27;1.17;;;17.50;99.90;;;;;;4979703;28;21028;-72
2023/08/02 09:32:14;;;;;;;3.47;1.97;;;17.50;99.90;;;;;;4978022;28;21009;-71
2023/08/02 09:34:46;;;;;;;2.23;2.03;;;17.70;99.90;;;;;;4983684;28;20671;-71
2023/08/02 09:37:14;;;;;;;3.83;2.17;;;17.90;99.90;;;;;;4979252;28;20652;-71
2023/08/02 09:39:48;;;;;;;2.50;1.80;;;18.00;99.90;;;;;;4975740;28;21245;-72
2023/08/02 09:42:15;;;;;;;3.30;2.70;;;18.00;99.90;;;;;;4979681;28;20656;-72
2023/08/02 09:44:42;;;;;;;2.00;1.87;;;18.10;99.90;;;;;;4976994;28;20724;-72
2023/08/02 09:47:10;;;;;;;5.13;2.50;;;18.20;99.90;;;;;;4978035;28;20732;-72
2023/08/02 09:49:37;;;;;;;2.10;1.80;;;18.20;99.90;;;;;;4979956;28;20635;-72
2023/08/02 09:52:08;;;;;;;1.63;1.43;;;18.30;99.90;;;;;;4976102;28;21249;-73
2023/08/02 09:54:35;;;;;;;2.10;1.90;;;18.40;99.90;;;;;;4981382;28;20656;-72
2023/08/02 09:57:02;;;;;;;1.70;1.60;;;18.50;99.90;;;;;;4981472;28;20657;-72
2023/08/02 09:59:30;;;;;;;2.53;2.33;;;18.50;99.90;;;;;;4973874;28;20629;-73
2023/08/02 10:01:58;;;;;;;2.40;2.20;;;18.60;99.90;;;;;;4975764;28;20653;-73
2023/08/02 10:04:26;;;;;;;2.27;2.03;;;18.60;99.90;;;;;;4981945;28;20629;-72
2023/08/02 10:06:58;;;;;;;2.53;2.33;;;18.60;99.90;;;;;;4978583;28;20653;-73
2023/08/02 10:09:29;;;;;;;2.30;2.10;;;18.50;99.90;;;;;;4978881;28;20877;-72
2023/08/02 10:12:01;;;;;;;2.90;2.60;;;18.70;99.90;;;;;;4976820;28;20752;-73
2023/08/02 10:14:30;;;;;;;2.20;2.00;;;18.80;99.90;;;;;;4980974;28;20661;-72
2023/08/02 10:17:00;;;;;;;2.53;2.27;;;18.90;99.90;;;;;;4975365;28;20646;-73
2023/08/02 10:19:28;;;;;;;2.53;2.17;;;18.90;99.90;;;;;;4974648;28;20630;-72
2023/08/02 10:21:57;;;;;;;3.03;2.60;;;18.90;99.90;;;;;;4984861;28;21320;-73
2023/08/02 10:24:28;;;;;;;2.63;2.03;;;18.70;99.90;;;;;;4977236;28;21007;-73
2023/08/02 10:26:56;;;;;;;3.30;2.10;;;18.70;99.90;;;;;;4977645;28;20656;-73
2023/08/02 10:29:24;;;;;;;2.63;2.30;;;18.70;99.90;;;;;;4976835;28;20629;-72
2023/08/02 10:31:51;;;;;;;2.47;2.27;;;18.70;99.90;;;;;;4981719;28;20646;-72
2023/08/02 10:34:44;;;;;;;4.20;2.40;;;18.60;99.90;;;;;;4975039;28;20740;-72
2023/08/02 10:37:10;;;;;;;2.60;2.30;;;18.60;99.90;;;;;;4978434;28;21145;-73
2023/08/02 10:39:57;;;;;;;2.47;2.13;;;18.60;99.90;;;;;;4975244;28;20648;-73
2023/08/02 10:42:29;;;;;;;3.07;2.73;;;18.60;99.90;;;;;;4981710;28;21230;-73
2023/08/02 10:45:15;;;;;;;3.33;2.43;;;18.60;99.90;;;;;;4979010;28;20637;-73
2023/08/02 10:47:42;;;;;;;4.87;2.80;;;18.50;99.90;;;;;;4977865;28;20621;-73
2023/08/02 10:50:53;;;;;;;3.83;2.87;;;18.40;99.90;;;;;;4980215;28;20633;-73
2023/08/02 10:53:20;;;;;;;2.67;2.17;;;18.50;99.90;;;;;;4963998;28;21106;-73
2023/08/02 10:56:16;;;;;;;2.83;2.63;;;18.50;99.90;;;;;;4974187;28;20666;-73
2023/08/02 10:58:51;;;;;;;4.03;3.40;;;18.50;99.90;;;;;;4954869;28;21221;-74
2023/08/02 11:01:18;;;;;;;3.07;2.77;;;18.60;99.90;;;;;;4981634;28;20659;-74
2023/08/02 11:03:46;;;;;;;5.03;2.50;;;18.70;99.90;;;;;;4984508;28;20676;-73
2023/08/02 11:06:32;;;;;;;3.93;3.60;;;18.80;99.90;;;;;;4977388;28;20653;-73
2023/08/02 11:11:57;;;;;;;5.00;3.03;;;18.80;99.90;;;;;;4977535;28;20657;-72
2023/08/02 11:14:27;;;;;;;4.20;2.97;;;18.90;99.90;;;;;;4976493;28;20653;-72
2023/08/02 11:16:55;;;;;;;4.23;2.33;;;19.10;99.90;;;;;;4975055;28;21214;-73
2023/08/02 11:19:22;;;;;;;3.30;3.00;;;19.10;99.90;;;;;;4971986;28;21187;-71
2023/08/02 11:21:57;;;;;;;2.70;2.50;;;19.10;99.90;;;;;;4974278;28;20748;-72
2023/08/02 11:24:24;;;;;;;2.77;2.37;;;19.10;99.90;;;;;;4975221;28;20617;-73
2023/08/02 11:26:54;;;;;;;4.70;2.70;;;19.10;99.90;;;;;;4978085;28;20659;-72
2023/08/02 11:29:22;;;;;;;3.13;2.70;;;19.30;99.90;;;;;;4975977;28;20641;-72
2023/08/02 11:31:49;;;;;;;2.83;2.50;;;19.50;99.90;;;;;;4979357;28;20661;-73
2023/08/02 11:34:18;;;;;;;2.80;2.47;;;19.60;99.90;;;;;;4977800;28;20659;-73
2023/08/02 11:36:45;;;;;;;2.63;2.43;;;19.80;99.90;;;;;;4969185;28;21237;-73
2023/08/02 11:39:14;;;;;;;3.50;2.80;;;20.00;99.90;;;;;;4981384;28;20667;-73
2023/08/02 11:41:41;;;;;;;3.93;2.13;;;20.50;99.90;;;;;;4980318;28;20994;-73
2023/08/02 11:44:15;;;;;;;3.53;2.63;;;21.20;99.90;;;;;;4976112;28;20633;-73
2023/08/02 11:46:44;;;;;;;6.27;3.10;;;21.70;99.90;;;;;;4980104;28;20655;-72
2023/08/02 11:49:10;;;;;;;2.47;2.27;;;22.40;99.90;;;;;;4981413;28;20639;-73
2023/08/02 11:51:41;;;;;;;2.73;1.93;;;22.90;99.90;;;;;;4979386;28;20714;-73
2023/08/02 11:54:09;;;;;;;3.30;2.30;;;23.50;99.90;;;;;;4977124;28;20726;-73
2023/08/02 11:56:36;;;;;;;2.47;2.27;;;23.80;99.90;;;;;;4977455;28;21230;-73
2023/08/02 11:59:04;;;;;;;2.57;2.00;;;24.20;99.90;;;;;;4976393;28;20686;-73
2023/08/02 12:01:30;;;;;;;2.23;1.77;;;24.30;99.90;;;;;;4975947;28;20653;-73
2023/08/02 12:04:00;;;;;;;2.47;2.27;;;24.80;99.90;;;;;;4973155;28;20808;-73
2023/08/02 12:06:27;;;;;;;2.50;2.30;;;25.60;99.80;;;;;;4982637;28;21251;-73
2023/08/02 12:08:56;;;;;;;3.60;2.90;;;26.10;96.90;;;;;;4968862;28;20629;-73
2023/08/02 12:11:23;;;;;;;5.23;2.90;;;26.20;96.30;;;;;;4976231;28;20661;-73
2023/08/02 12:13:50;;;;;;;2.20;2.10;;;26.20;97.30;;;;;;4982607;28;20625;-73
2023/08/02 12:16:18;;;;;;;2.60;2.40;;;25.80;96.90;;;;;;4977470;28;21024;-72
2023/08/02 12:18:52;;;;;;;3.07;2.10;;;26.10;96.00;;;;;;4977899;28;20736;-73
2023/08/02 12:21:20;;;;;;;2.40;2.20;;;26.10;94.30;;;;;;4973252;28;21222;-73
2023/08/02 12:23:47;;;;;;;2.30;2.07;;;26.00;95.80;;;;;;4976498;28;20630;-73
2023/08/02 12:26:28;;;;;;;2.73;1.93;;;26.50;95.30;;;;;;4976458;28;21262;-73
2023/08/02 12:28:55;;;;;;;1.90;1.80;;;27.30;93.40;;;;;;4975146;28;20641;-73
2023/08/02 12:31:22;;;;;;;3.93;1.97;;;27.60;92.10;;;;;;4979689;28;20696;-73
2023/08/02 12:33:49;;;;;;;2.60;2.00;;;27.50;92.40;;;;;;4971180;28;20654;-73
2023/08/02 12:36:26;;;;;;;2.33;2.20;;;27.50;90.40;;;;;;4980922;28;20674;-73
2023/08/02 12:38:53;;;;;;;3.40;1.60;;;27.50;91.40;;;;;;4971687;28;20629;-73
2023/08/02 12:41:20;;;;;;;2.47;2.27;;;27.20;89.60;;;;;;4980281;28;20649;-74
2023/08/02 12:43:46;;;;;;;1.97;1.77;;;27.00;91.00;;;;;;4978762;28;20998;-73
2023/08/02 12:46:14;;;;;;;3.47;1.63;;;26.20;90.20;;;;;;4981790;28;21003;-73
2023/08/02 12:48:41;;;;;;;4.50;2.63;;;25.50;91.20;;;;;;4980401;28;20637;-73
2023/08/02 12:51:08;;;;;;;2.43;1.30;;;25.20;92.00;;;;;;4984045;28;21300;-73
2023/08/02 12:53:36;;;;;;;3.83;2.00;;;25.00;93.40;;;;;;4975938;28;21292;-73
2023/08/02 12:56:03;;;;;;;2.20;1.80;;;24.50;92.70;;;;;;4980997;28;20676;-73
2023/08/02 12:58:30;;;;;;;2.93;1.47;;;24.20;93.80;;;;;;4976417;28;20820;-73